sensor_id;sensor_type;location;lat;lon;timestamp;P1;durP1;ratioP1;P2;durP2;ratioP2
14738;SDS011;7461;52.440;13.540;2022-09-23T00:00:47;12.40;;;11.27;;
14738;SDS011;7461;52.440;13.540;2022-09-23T00:03:16;13.25;;;12.02;;
14738;SDS011;7461;52.440;13.540;2022-09-23T00:05:44;13.70;;;12.43;;
14738;SDS011;7461;52.440;13.540;2022-09-23T00:08:22;11.25;;;10.23;;
14738;SDS011;7461;52.440;13.540;2022-09-23T00:10:50;12.55;;;11.65;;
14738;SDS011;7461;52.440;13.540;2022-09-23T00:13:17;11.38;;;10.57;;
14738;SDS011;7461;52.440;13.540;2022-09-23T00:15:44;11.98;;;10.98;;
14738;SDS011;7461;52.440;13.540;2022-09-23T00:18:11;11.35;;;10.55;;
14738;SDS011;7461;52.440;13.540;2022-09-23T00:20:40;12.18;;;11.27;;
14738;SDS011;7461;52.440;13.540;2022-09-23T00:23:07;14.15;;;13.02;;
14738;SDS011;7461;52.440;13.540;2022-09-23T00:25:34;12.93;;;12.02;;
14738;SDS011;7461;52.440;13.540;2022-09-23T00:28:01;12.63;;;11.43;;
14738;SDS011;7461;52.440;13.540;2022-09-23T00:30:28;12.20;;;11.18;;
14738;SDS011;7461;52.440;13.540;2022-09-23T00:32:56;12.07;;;11.15;;
14738;SDS011;7461;52.440;13.540;2022-09-23T00:35:24;13.02;;;11.85;;
14738;SDS011;7461;52.440;13.540;2022-09-23T00:37:52;12.75;;;11.75;;
14738;SDS011;7461;52.440;13.540;2022-09-23T00:40:20;11.20;;;10.50;;
14738;SDS011;7461;52.440;13.540;2022-09-23T00:42:48;11.73;;;10.82;;
14738;SDS011;7461;52.440;13.540;2022-09-23T00:45:16;12.90;;;11.77;;
14738;SDS011;7461;52.440;13.540;2022-09-23T00:47:44;12.15;;;11.20;;
14738;SDS011;7461;52.440;13.540;2022-09-23T00:50:14;11.65;;;10.50;;
14738;SDS011;7461;52.440;13.540;2022-09-23T00:52:43;11.75;;;10.85;;
14738;SDS011;7461;52.440;13.540;2022-09-23T00:55:15;11.88;;;11.07;;
14738;SDS011;7461;52.440;13.540;2022-09-23T00:57:43;10.63;;;9.70;;
14738;SDS011;7461;52.440;13.540;2022-09-23T01:00:11;11.23;;;10.35;;
14738;SDS011;7461;52.440;13.540;2022-09-23T01:02:38;10.20;;;9.40;;
14738;SDS011;7461;52.440;13.540;2022-09-23T01:05:06;9.90;;;9.10;;
14738;SDS011;7461;52.440;13.540;2022-09-23T01:07:33;9.75;;;9.05;;
14738;SDS011;7461;52.440;13.540;2022-09-23T01:10:00;10.00;;;9.32;;
14738;SDS011;7461;52.440;13.540;2022-09-23T01:15:12;10.88;;;10.10;;
14738;SDS011;7461;52.440;13.540;2022-09-23T01:17:43;10.52;;;9.48;;
14738;SDS011;7461;52.440;13.540;2022-09-23T01:23:01;11.63;;;10.75;;
14738;SDS011;7461;52.440;13.540;2022-09-23T01:25:37;10.75;;;9.93;;
14738;SDS011;7461;52.440;13.540;2022-09-23T01:28:23;10.77;;;10.02;;
14738;SDS011;7461;52.440;13.540;2022-09-23T01:30:56;9.38;;;8.60;;
14738;SDS011;7461;52.440;13.540;2022-09-23T01:33:26;9.00;;;8.45;;
14738;SDS011;7461;52.440;13.540;2022-09-23T01:36:01;10.07;;;9.10;;
14738;SDS011;7461;52.440;13.540;2022-09-23T01:38:34;9.05;;;8.40;;
14738;SDS011;7461;52.440;13.540;2022-09-23T01:41:03;8.75;;;8.02;;
14738;SDS011;7461;52.440;13.540;2022-09-23T01:43:36;9.45;;;8.70;;
14738;SDS011;7461;52.440;13.540;2022-09-23T01:46:08;8.65;;;8.05;;
14738;SDS011;7461;52.440;13.540;2022-09-23T01:48:36;8.75;;;8.18;;
14738;SDS011;7461;52.440;13.540;2022-09-23T01:51:06;9.60;;;8.70;;
14738;SDS011;7461;52.440;13.540;2022-09-23T01:53:36;9.02;;;8.32;;
14738;SDS011;7461;52.440;13.540;2022-09-23T01:56:06;8.55;;;7.95;;
14738;SDS011;7461;52.440;13.540;2022-09-23T01:58:37;9.27;;;8.48;;
14738;SDS011;7461;52.440;13.540;2022-09-23T02:01:06;9.90;;;9.23;;
14738;SDS011;7461;52.440;13.540;2022-09-23T02:03:35;8.73;;;8.02;;
14738;SDS011;7461;52.440;13.540;2022-09-23T02:06:07;9.20;;;8.63;;
14738;SDS011;7461;52.440;13.540;2022-09-23T02:08:38;9.80;;;8.43;;
14738;SDS011;7461;52.440;13.540;2022-09-23T02:11:08;8.95;;;8.38;;
14738;SDS011;7461;52.440;13.540;2022-09-23T02:13:37;9.40;;;8.70;;
14738;SDS011;7461;52.440;13.540;2022-09-23T02:16:07;7.82;;;7.43;;
14738;SDS011;7461;52.440;13.540;2022-09-23T02:18:38;8.45;;;7.85;;
14738;SDS011;7461;52.440;13.540;2022-09-23T02:21:07;8.48;;;7.72;;
14738;SDS011;7461;52.440;13.540;2022-09-23T02:23:35;8.20;;;7.50;;
14738;SDS011;7461;52.440;13.540;2022-09-23T02:26:07;7.18;;;6.68;;
14738;SDS011;7461;52.440;13.540;2022-09-23T02:28:39;7.70;;;7.18;;
14738;SDS011;7461;52.440;13.540;2022-09-23T02:31:10;7.82;;;7.38;;
14738;SDS011;7461;52.440;13.540;2022-09-23T02:33:40;8.50;;;7.90;;
14738;SDS011;7461;52.440;13.540;2022-09-23T02:36:11;7.72;;;7.13;;
14738;SDS011;7461;52.440;13.540;2022-09-23T02:38:40;7.80;;;7.40;;
14738;SDS011;7461;52.440;13.540;2022-09-23T02:41:09;9.45;;;8.82;;
14738;SDS011;7461;52.440;13.540;2022-09-23T02:43:40;7.50;;;7.00;;
14738;SDS011;7461;52.440;13.540;2022-09-23T02:46:10;7.57;;;6.95;;
14738;SDS011;7461;52.440;13.540;2022-09-23T02:48:38;8.80;;;8.20;;
14738;SDS011;7461;52.440;13.540;2022-09-23T02:51:08;7.60;;;7.13;;
14738;SDS011;7461;52.440;13.540;2022-09-23T02:53:35;7.35;;;6.75;;
14738;SDS011;7461;52.440;13.540;2022-09-23T02:56:10;8.30;;;7.70;;
14738;SDS011;7461;52.440;13.540;2022-09-23T02:58:38;8.57;;;7.63;;
14738;SDS011;7461;52.440;13.540;2022-09-23T03:01:18;8.57;;;7.95;;
14738;SDS011;7461;52.440;13.540;2022-09-23T03:03:51;8.25;;;7.65;;
14738;SDS011;7461;52.440;13.540;2022-09-23T03:06:24;8.52;;;7.93;;
14738;SDS011;7461;52.440;13.540;2022-09-23T03:08:55;9.27;;;8.38;;
14738;SDS011;7461;52.440;13.540;2022-09-23T03:11:24;8.02;;;7.40;;
14738;SDS011;7461;52.440;13.540;2022-09-23T03:13:59;8.18;;;7.55;;
14738;SDS011;7461;52.440;13.540;2022-09-23T03:16:30;9.02;;;8.32;;
14738;SDS011;7461;52.440;13.540;2022-09-23T03:19:00;7.07;;;6.55;;
14738;SDS011;7461;52.440;13.540;2022-09-23T03:21:33;8.20;;;7.55;;
14738;SDS011;7461;52.440;13.540;2022-09-23T03:24:01;9.02;;;8.23;;
14738;SDS011;7461;52.440;13.540;2022-09-23T03:26:30;10.95;;;10.13;;
14738;SDS011;7461;52.440;13.540;2022-09-23T03:29:00;9.15;;;8.35;;
14738;SDS011;7461;52.440;13.540;2022-09-23T03:31:28;9.02;;;8.43;;
14738;SDS011;7461;52.440;13.540;2022-09-23T03:33:56;8.23;;;7.72;;
14738;SDS011;7461;52.440;13.540;2022-09-23T03:36:24;9.68;;;8.77;;
14738;SDS011;7461;52.440;13.540;2022-09-23T03:39:13;9.32;;;8.63;;
14738;SDS011;7461;52.440;13.540;2022-09-23T03:41:43;9.75;;;9.05;;
14738;SDS011;7461;52.440;13.540;2022-09-23T03:44:14;9.70;;;8.82;;
14738;SDS011;7461;52.440;13.540;2022-09-23T03:46:42;9.88;;;9.25;;
14738;SDS011;7461;52.440;13.540;2022-09-23T03:49:14;8.48;;;7.88;;
14738;SDS011;7461;52.440;13.540;2022-09-23T03:51:42;8.25;;;7.47;;
14738;SDS011;7461;52.440;13.540;2022-09-23T03:54:09;9.98;;;9.27;;
14738;SDS011;7461;52.440;13.540;2022-09-23T03:56:38;9.30;;;8.55;;
14738;SDS011;7461;52.440;13.540;2022-09-23T03:59:05;9.38;;;8.77;;
14738;SDS011;7461;52.440;13.540;2022-09-23T04:01:32;9.10;;;8.30;;
14738;SDS011;7461;52.440;13.540;2022-09-23T04:04:00;9.18;;;8.38;;
14738;SDS011;7461;52.440;13.540;2022-09-23T04:06:27;11.13;;;10.23;;
14738;SDS011;7461;52.440;13.540;2022-09-23T04:08:54;8.95;;;8.35;;
14738;SDS011;7461;52.440;13.540;2022-09-23T04:11:22;9.63;;;8.40;;
14738;SDS011;7461;52.440;13.540;2022-09-23T04:13:50;10.23;;;9.52;;
14738;SDS011;7461;52.440;13.540;2022-09-23T04:16:17;9.93;;;9.05;;
14738;SDS011;7461;52.440;13.540;2022-09-23T04:18:45;8.98;;;8.15;;
14738;SDS011;7461;52.440;13.540;2022-09-23T04:21:12;9.95;;;9.07;;
14738;SDS011;7461;52.440;13.540;2022-09-23T04:23:39;8.90;;;8.30;;
14738;SDS011;7461;52.440;13.540;2022-09-23T04:26:06;10.55;;;9.68;;
14738;SDS011;7461;52.440;13.540;2022-09-23T04:28:33;9.52;;;8.70;;
14738;SDS011;7461;52.440;13.540;2022-09-23T04:31:03;11.88;;;10.98;;
14738;SDS011;7461;52.440;13.540;2022-09-23T04:33:30;33.05;;;30.23;;
14738;SDS011;7461;52.440;13.540;2022-09-23T04:35:58;18.25;;;16.98;;
14738;SDS011;7461;52.440;13.540;2022-09-23T04:38:25;14.68;;;13.52;;
14738;SDS011;7461;52.440;13.540;2022-09-23T04:40:52;12.10;;;11.10;;
14738;SDS011;7461;52.440;13.540;2022-09-23T04:43:19;11.73;;;10.82;;
14738;SDS011;7461;52.440;13.540;2022-09-23T04:45:56;10.95;;;10.10;;
14738;SDS011;7461;52.440;13.540;2022-09-23T04:48:25;13.75;;;12.75;;
14738;SDS011;7461;52.440;13.540;2022-09-23T04:50:52;14.77;;;13.68;;
14738;SDS011;7461;52.440;13.540;2022-09-23T04:53:19;14.05;;;12.88;;
14738;SDS011;7461;52.440;13.540;2022-09-23T04:55:46;13.05;;;12.05;;
14738;SDS011;7461;52.440;13.540;2022-09-23T04:58:14;10.30;;;9.60;;
14738;SDS011;7461;52.440;13.540;2022-09-23T05:00:41;10.68;;;9.88;;
14738;SDS011;7461;52.440;13.540;2022-09-23T05:03:08;11.25;;;10.35;;
14738;SDS011;7461;52.440;13.540;2022-09-23T05:05:37;13.43;;;9.80;;
14738;SDS011;7461;52.440;13.540;2022-09-23T05:08:05;9.95;;;9.15;;
14738;SDS011;7461;52.440;13.540;2022-09-23T05:10:34;10.43;;;8.68;;
14738;SDS011;7461;52.440;13.540;2022-09-23T05:13:01;10.18;;;9.38;;
14738;SDS011;7461;52.440;13.540;2022-09-23T05:15:28;10.02;;;9.05;;
14738;SDS011;7461;52.440;13.540;2022-09-23T05:17:56;8.68;;;8.10;;
14738;SDS011;7461;52.440;13.540;2022-09-23T05:20:23;9.60;;;8.95;;
14738;SDS011;7461;52.440;13.540;2022-09-23T05:22:52;9.32;;;8.60;;
14738;SDS011;7461;52.440;13.540;2022-09-23T05:25:20;11.48;;;10.55;;
14738;SDS011;7461;52.440;13.540;2022-09-23T05:27:48;10.35;;;9.55;;
14738;SDS011;7461;52.440;13.540;2022-09-23T05:30:16;10.45;;;9.65;;
14738;SDS011;7461;52.440;13.540;2022-09-23T05:32:43;11.82;;;10.52;;
14738;SDS011;7461;52.440;13.540;2022-09-23T05:35:10;10.43;;;9.82;;
14738;SDS011;7461;52.440;13.540;2022-09-23T05:37:37;12.65;;;11.70;;
14738;SDS011;7461;52.440;13.540;2022-09-23T05:40:06;15.00;;;13.63;;
14738;SDS011;7461;52.440;13.540;2022-09-23T05:42:33;13.70;;;12.70;;
14738;SDS011;7461;52.440;13.540;2022-09-23T05:45:01;15.10;;;13.68;;
14738;SDS011;7461;52.440;13.540;2022-09-23T05:47:28;15.43;;;14.40;;
14738;SDS011;7461;52.440;13.540;2022-09-23T05:49:55;16.98;;;15.70;;
14738;SDS011;7461;52.440;13.540;2022-09-23T05:52:22;14.95;;;13.85;;
14738;SDS011;7461;52.440;13.540;2022-09-23T05:54:50;16.90;;;15.70;;
14738;SDS011;7461;52.440;13.540;2022-09-23T05:57:19;15.60;;;14.70;;
14738;SDS011;7461;52.440;13.540;2022-09-23T05:59:46;12.27;;;11.35;;
14738;SDS011;7461;52.440;13.540;2022-09-23T06:02:13;12.93;;;11.93;;
14738;SDS011;7461;52.440;13.540;2022-09-23T06:04:40;11.60;;;10.77;;
14738;SDS011;7461;52.440;13.540;2022-09-23T06:07:08;11.07;;;10.27;;
14738;SDS011;7461;52.440;13.540;2022-09-23T06:09:35;10.35;;;9.63;;
14738;SDS011;7461;52.440;13.540;2022-09-23T06:12:02;9.98;;;9.25;;
14738;SDS011;7461;52.440;13.540;2022-09-23T06:14:31;10.70;;;9.85;;
14738;SDS011;7461;52.440;13.540;2022-09-23T06:16:58;11.07;;;10.30;;
14738;SDS011;7461;52.440;13.540;2022-09-23T06:19:26;12.68;;;11.55;;
14738;SDS011;7461;52.440;13.540;2022-09-23T06:21:53;10.52;;;9.75;;
14738;SDS011;7461;52.440;13.540;2022-09-23T06:24:20;10.23;;;9.32;;
14738;SDS011;7461;52.440;13.540;2022-09-23T06:26:47;8.85;;;8.15;;
14738;SDS011;7461;52.440;13.540;2022-09-23T06:29:14;10.13;;;9.43;;
14738;SDS011;7461;52.440;13.540;2022-09-23T06:31:43;9.85;;;9.15;;
14738;SDS011;7461;52.440;13.540;2022-09-23T06:34:11;8.98;;;8.10;;
14738;SDS011;7461;52.440;13.540;2022-09-23T06:36:38;9.98;;;9.38;;
14738;SDS011;7461;52.440;13.540;2022-09-23T06:39:06;9.18;;;8.48;;
14738;SDS011;7461;52.440;13.540;2022-09-23T06:41:33;10.05;;;9.07;;
14738;SDS011;7461;52.440;13.540;2022-09-23T06:44:00;9.82;;;9.23;;
14738;SDS011;7461;52.440;13.540;2022-09-23T06:46:27;10.65;;;9.95;;
14738;SDS011;7461;52.440;13.540;2022-09-23T06:48:57;10.23;;;9.25;;
14738;SDS011;7461;52.440;13.540;2022-09-23T06:51:25;9.55;;;8.85;;
14738;SDS011;7461;52.440;13.540;2022-09-23T06:53:52;8.27;;;7.78;;
14738;SDS011;7461;52.440;13.540;2022-09-23T06:56:19;10.00;;;9.38;;
14738;SDS011;7461;52.440;13.540;2022-09-23T06:58:47;9.52;;;8.93;;
14738;SDS011;7461;52.440;13.540;2022-09-23T07:01:15;9.30;;;8.70;;
14738;SDS011;7461;52.440;13.540;2022-09-23T07:03:43;9.93;;;9.18;;
14738;SDS011;7461;52.440;13.540;2022-09-23T07:06:12;10.05;;;9.45;;
14738;SDS011;7461;52.440;13.540;2022-09-23T07:08:41;9.70;;;9.00;;
14738;SDS011;7461;52.440;13.540;2022-09-23T07:11:09;8.63;;;8.13;;
14738;SDS011;7461;52.440;13.540;2022-09-23T07:13:37;10.02;;;9.23;;
14738;SDS011;7461;52.440;13.540;2022-09-23T07:16:07;10.77;;;9.98;;
14738;SDS011;7461;52.440;13.540;2022-09-23T07:18:34;8.77;;;7.97;;
14738;SDS011;7461;52.440;13.540;2022-09-23T07:21:05;10.40;;;9.80;;
14738;SDS011;7461;52.440;13.540;2022-09-23T07:23:34;9.43;;;8.82;;
14738;SDS011;7461;52.440;13.540;2022-09-23T07:26:02;9.05;;;8.55;;
14738;SDS011;7461;52.440;13.540;2022-09-23T07:28:31;9.75;;;9.07;;
14738;SDS011;7461;52.440;13.540;2022-09-23T07:31:01;8.02;;;7.47;;
14738;SDS011;7461;52.440;13.540;2022-09-23T07:33:28;8.80;;;7.97;;
14738;SDS011;7461;52.440;13.540;2022-09-23T07:35:56;8.38;;;7.78;;
14738;SDS011;7461;52.440;13.540;2022-09-23T07:38:24;9.70;;;8.90;;
14738;SDS011;7461;52.440;13.540;2022-09-23T07:40:55;9.02;;;8.38;;
14738;SDS011;7461;52.440;13.540;2022-09-23T07:43:25;9.13;;;8.52;;
14738;SDS011;7461;52.440;13.540;2022-09-23T07:45:55;8.65;;;7.95;;
14738;SDS011;7461;52.440;13.540;2022-09-23T07:48:23;7.47;;;6.78;;
14738;SDS011;7461;52.440;13.540;2022-09-23T07:50:50;7.80;;;7.15;;
14738;SDS011;7461;52.440;13.540;2022-09-23T07:53:17;7.80;;;7.30;;
14738;SDS011;7461;52.440;13.540;2022-09-23T07:55:49;8.80;;;8.10;;
14738;SDS011;7461;52.440;13.540;2022-09-23T07:58:18;8.32;;;7.82;;
14738;SDS011;7461;52.440;13.540;2022-09-23T08:00:45;7.32;;;6.93;;
14738;SDS011;7461;52.440;13.540;2022-09-23T08:03:12;7.35;;;6.90;;
14738;SDS011;7461;52.440;13.540;2022-09-23T08:05:40;8.50;;;7.60;;
14738;SDS011;7461;52.440;13.540;2022-09-23T08:08:07;8.27;;;7.80;;
14738;SDS011;7461;52.440;13.540;2022-09-23T08:10:34;11.35;;;10.27;;
14738;SDS011;7461;52.440;13.540;2022-09-23T08:13:01;9.45;;;8.85;;
14738;SDS011;7461;52.440;13.540;2022-09-23T08:15:30;8.35;;;7.85;;
14738;SDS011;7461;52.440;13.540;2022-09-23T08:17:57;8.70;;;8.10;;
14738;SDS011;7461;52.440;13.540;2022-09-23T08:20:25;8.43;;;7.78;;
14738;SDS011;7461;52.440;13.540;2022-09-23T08:23:11;7.65;;;7.15;;
14738;SDS011;7461;52.440;13.540;2022-09-23T08:25:39;7.85;;;7.35;;
14738;SDS011;7461;52.440;13.540;2022-09-23T08:28:06;7.95;;;7.35;;
14738;SDS011;7461;52.440;13.540;2022-09-23T08:30:34;7.20;;;6.78;;
14738;SDS011;7461;52.440;13.540;2022-09-23T08:33:02;7.53;;;7.03;;
14738;SDS011;7461;52.440;13.540;2022-09-23T08:35:29;6.63;;;6.22;;
14738;SDS011;7461;52.440;13.540;2022-09-23T08:37:56;7.43;;;6.93;;
14738;SDS011;7461;52.440;13.540;2022-09-23T08:40:23;6.75;;;6.30;;
14738;SDS011;7461;52.440;13.540;2022-09-23T08:42:50;6.05;;;5.75;;
14738;SDS011;7461;52.440;13.540;2022-09-23T08:45:18;6.43;;;5.82;;
14738;SDS011;7461;52.440;13.540;2022-09-23T08:47:50;6.03;;;5.63;;
14738;SDS011;7461;52.440;13.540;2022-09-23T08:50:18;6.10;;;5.68;;
14738;SDS011;7461;52.440;13.540;2022-09-23T08:52:47;5.78;;;5.38;;
14738;SDS011;7461;52.440;13.540;2022-09-23T08:55:17;5.82;;;5.53;;
14738;SDS011;7461;52.440;13.540;2022-09-23T08:57:46;5.72;;;5.43;;
14738;SDS011;7461;52.440;13.540;2022-09-23T09:00:18;5.35;;;4.50;;
14738;SDS011;7461;52.440;13.540;2022-09-23T09:02:45;5.00;;;4.70;;
14738;SDS011;7461;52.440;13.540;2022-09-23T09:05:15;4.82;;;4.53;;
14738;SDS011;7461;52.440;13.540;2022-09-23T09:07:44;5.07;;;4.60;;
14738;SDS011;7461;52.440;13.540;2022-09-23T09:10:14;5.25;;;4.95;;
14738;SDS011;7461;52.440;13.540;2022-09-23T09:12:43;4.68;;;4.32;;
14738;SDS011;7461;52.440;13.540;2022-09-23T09:15:12;4.72;;;4.43;;
14738;SDS011;7461;52.440;13.540;2022-09-23T09:17:42;4.65;;;4.35;;
14738;SDS011;7461;52.440;13.540;2022-09-23T09:20:20;4.57;;;4.32;;
14738;SDS011;7461;52.440;13.540;2022-09-23T09:22:54;4.65;;;4.28;;
14738;SDS011;7461;52.440;13.540;2022-09-23T09:25:30;3.97;;;3.78;;
14738;SDS011;7461;52.440;13.540;2022-09-23T09:27:58;4.30;;;4.10;;
14738;SDS011;7461;52.440;13.540;2022-09-23T09:30:26;4.32;;;4.13;;
14738;SDS011;7461;52.440;13.540;2022-09-23T09:32:55;4.18;;;3.88;;
14738;SDS011;7461;52.440;13.540;2022-09-23T09:35:27;3.85;;;3.55;;
14738;SDS011;7461;52.440;13.540;2022-09-23T09:37:57;4.43;;;3.70;;
14738;SDS011;7461;52.440;13.540;2022-09-23T09:40:25;4.28;;;3.97;;
14738;SDS011;7461;52.440;13.540;2022-09-23T09:42:53;3.35;;;3.15;;
14738;SDS011;7461;52.440;13.540;2022-09-23T09:45:24;3.67;;;3.22;;
14738;SDS011;7461;52.440;13.540;2022-09-23T09:47:55;3.30;;;3.10;;
14738;SDS011;7461;52.440;13.540;2022-09-23T09:50:42;3.15;;;2.92;;
14738;SDS011;7461;52.440;13.540;2022-09-23T09:53:18;3.58;;;3.38;;
14738;SDS011;7461;52.440;13.540;2022-09-23T09:55:55;2.58;;;2.38;;
14738;SDS011;7461;52.440;13.540;2022-09-23T09:58:23;2.95;;;2.78;;
14738;SDS011;7461;52.440;13.540;2022-09-23T10:00:51;2.63;;;2.42;;
14738;SDS011;7461;52.440;13.540;2022-09-23T10:03:22;1.90;;;1.80;;
14738;SDS011;7461;52.440;13.540;2022-09-23T10:05:52;2.97;;;2.78;;
14738;SDS011;7461;52.440;13.540;2022-09-23T10:08:22;3.08;;;2.88;;
14738;SDS011;7461;52.440;13.540;2022-09-23T10:10:51;2.83;;;2.60;;
14738;SDS011;7461;52.440;13.540;2022-09-23T10:13:20;2.72;;;2.10;;
14738;SDS011;7461;52.440;13.540;2022-09-23T10:15:48;3.10;;;2.83;;
14738;SDS011;7461;52.440;13.540;2022-09-23T10:18:19;2.75;;;2.65;;
14738;SDS011;7461;52.440;13.540;2022-09-23T10:20:53;2.95;;;2.85;;
14738;SDS011;7461;52.440;13.540;2022-09-23T10:23:26;2.55;;;2.35;;
14738;SDS011;7461;52.440;13.540;2022-09-23T10:25:58;2.28;;;2.03;;
14738;SDS011;7461;52.440;13.540;2022-09-23T10:28:29;2.08;;;1.98;;
14738;SDS011;7461;52.440;13.540;2022-09-23T10:31:02;3.00;;;2.75;;
14738;SDS011;7461;52.440;13.540;2022-09-23T10:33:30;2.75;;;2.55;;
14738;SDS011;7461;52.440;13.540;2022-09-23T10:35:59;2.60;;;2.40;;
14738;SDS011;7461;52.440;13.540;2022-09-23T10:38:26;3.08;;;2.88;;
14738;SDS011;7461;52.440;13.540;2022-09-23T10:40:53;3.60;;;2.60;;
14738;SDS011;7461;52.440;13.540;2022-09-23T10:43:41;2.70;;;2.50;;
14738;SDS011;7461;52.440;13.540;2022-09-23T10:46:29;3.03;;;2.38;;
14738;SDS011;7461;52.440;13.540;2022-09-23T10:54:58;1.98;;;1.88;;
14738;SDS011;7461;52.440;13.540;2022-09-23T10:57:32;3.05;;;2.88;;
14738;SDS011;7461;52.440;13.540;2022-09-23T11:00:08;3.47;;;3.28;;
14738;SDS011;7461;52.440;13.540;2022-09-23T11:02:42;2.88;;;2.78;;
14738;SDS011;7461;52.440;13.540;2022-09-23T11:08:00;2.55;;;2.45;;
14738;SDS011;7461;52.440;13.540;2022-09-23T11:10:44;3.40;;;3.10;;
14738;SDS011;7461;52.440;13.540;2022-09-23T11:13:18;2.83;;;2.63;;
14738;SDS011;7461;52.440;13.540;2022-09-23T11:15:51;2.65;;;2.55;;
14738;SDS011;7461;52.440;13.540;2022-09-23T11:18:27;3.28;;;3.08;;
14738;SDS011;7461;52.440;13.540;2022-09-23T11:20:59;3.40;;;2.88;;
14738;SDS011;7461;52.440;13.540;2022-09-23T11:23:35;2.45;;;2.15;;
14738;SDS011;7461;52.440;13.540;2022-09-23T11:26:09;1.85;;;1.73;;
14738;SDS011;7461;52.440;13.540;2022-09-23T11:28:53;3.03;;;2.80;;
14738;SDS011;7461;52.440;13.540;2022-09-23T11:31:30;1.65;;;1.55;;
14738;SDS011;7461;52.440;13.540;2022-09-23T11:34:04;2.40;;;2.30;;
14738;SDS011;7461;52.440;13.540;2022-09-23T11:36:37;2.05;;;1.95;;
14738;SDS011;7461;52.440;13.540;2022-09-23T11:39:06;2.83;;;2.25;;
14738;SDS011;7461;52.440;13.540;2022-09-23T11:41:38;2.22;;;2.13;;
14738;SDS011;7461;52.440;13.540;2022-09-23T11:44:10;1.83;;;1.73;;
14738;SDS011;7461;52.440;13.540;2022-09-23T11:46:38;2.25;;;1.90;;
14738;SDS011;7461;52.440;13.540;2022-09-23T11:49:07;2.15;;;2.00;;
14738;SDS011;7461;52.440;13.540;2022-09-23T11:51:37;2.55;;;1.60;;
14738;SDS011;7461;52.440;13.540;2022-09-23T11:54:08;2.45;;;2.28;;
14738;SDS011;7461;52.440;13.540;2022-09-23T11:56:41;1.42;;;1.42;;
14738;SDS011;7461;52.440;13.540;2022-09-23T11:59:11;6.05;;;2.38;;
14738;SDS011;7461;52.440;13.540;2022-09-23T12:01:43;6.88;;;6.30;;
14738;SDS011;7461;52.440;13.540;2022-09-23T12:04:12;2.50;;;2.40;;
14738;SDS011;7461;52.440;13.540;2022-09-23T12:06:44;3.72;;;3.42;;
14738;SDS011;7461;52.440;13.540;2022-09-23T12:09:14;3.17;;;2.90;;
14738;SDS011;7461;52.440;13.540;2022-09-23T12:11:47;2.58;;;2.47;;
14738;SDS011;7461;52.440;13.540;2022-09-23T12:14:18;2.38;;;1.98;;
14738;SDS011;7461;52.440;13.540;2022-09-23T12:20:03;2.38;;;2.15;;
14738;SDS011;7461;52.440;13.540;2022-09-23T12:22:39;2.40;;;2.28;;
14738;SDS011;7461;52.440;13.540;2022-09-23T12:25:14;1.55;;;1.45;;
14738;SDS011;7461;52.440;13.540;2022-09-23T12:27:48;1.83;;;1.73;;
14738;SDS011;7461;52.440;13.540;2022-09-23T12:30:16;1.98;;;1.65;;
14738;SDS011;7461;52.440;13.540;2022-09-23T12:32:44;2.10;;;2.00;;
14738;SDS011;7461;52.440;13.540;2022-09-23T12:35:21;1.83;;;1.73;;
14738;SDS011;7461;52.440;13.540;2022-09-23T12:37:50;2.25;;;2.00;;
14738;SDS011;7461;52.440;13.540;2022-09-23T12:40:19;1.48;;;1.38;;
14738;SDS011;7461;52.440;13.540;2022-09-23T12:42:48;3.17;;;2.33;;
14738;SDS011;7461;52.440;13.540;2022-09-23T12:45:17;1.80;;;1.70;;
14738;SDS011;7461;52.440;13.540;2022-09-23T12:47:58;2.20;;;2.10;;
14738;SDS011;7461;52.440;13.540;2022-09-23T12:50:46;1.83;;;1.73;;
14738;SDS011;7461;52.440;13.540;2022-09-23T12:56:13;2.10;;;1.85;;
14738;SDS011;7461;52.440;13.540;2022-09-23T12:58:55;2.03;;;1.92;;
14738;SDS011;7461;52.440;13.540;2022-09-23T13:01:23;1.88;;;1.77;;
14738;SDS011;7461;52.440;13.540;2022-09-23T13:03:51;2.03;;;1.90;;
14738;SDS011;7461;52.440;13.540;2022-09-23T13:06:37;1.45;;;1.35;;
14738;SDS011;7461;52.440;13.540;2022-09-23T13:09:06;1.95;;;1.85;;
14738;SDS011;7461;52.440;13.540;2022-09-23T13:11:34;1.35;;;1.35;;
14738;SDS011;7461;52.440;13.540;2022-09-23T13:14:06;1.58;;;1.48;;
14738;SDS011;7461;52.440;13.540;2022-09-23T13:16:34;1.95;;;1.85;;
14738;SDS011;7461;52.440;13.540;2022-09-23T13:19:03;2.33;;;2.22;;
14738;SDS011;7461;52.440;13.540;2022-09-23T13:24:41;1.85;;;1.75;;
14738;SDS011;7461;52.440;13.540;2022-09-23T13:27:14;2.25;;;2.15;;
14738;SDS011;7461;52.440;13.540;2022-09-23T13:29:44;3.60;;;1.30;;
14738;SDS011;7461;52.440;13.540;2022-09-23T13:32:14;1.95;;;1.85;;
14738;SDS011;7461;52.440;13.540;2022-09-23T13:34:43;1.92;;;1.83;;
14738;SDS011;7461;52.440;13.540;2022-09-23T13:37:15;2.05;;;1.80;;
14738;SDS011;7461;52.440;13.540;2022-09-23T13:39:43;1.77;;;1.67;;
14738;SDS011;7461;52.440;13.540;2022-09-23T13:42:12;3.10;;;1.88;;
14738;SDS011;7461;52.440;13.540;2022-09-23T13:44:45;2.20;;;2.10;;
14738;SDS011;7461;52.440;13.540;2022-09-23T13:47:13;1.48;;;1.35;;
14738;SDS011;7461;52.440;13.540;2022-09-23T13:49:41;2.53;;;2.40;;
14738;SDS011;7461;52.440;13.540;2022-09-23T13:52:18;1.98;;;1.88;;
14738;SDS011;7461;52.440;13.540;2022-09-23T13:54:49;2.03;;;1.92;;
14738;SDS011;7461;52.440;13.540;2022-09-23T13:57:26;2.10;;;2.00;;
14738;SDS011;7461;52.440;13.540;2022-09-23T13:59:54;1.52;;;1.42;;
14738;SDS011;7461;52.440;13.540;2022-09-23T14:02:25;1.60;;;1.48;;
14738;SDS011;7461;52.440;13.540;2022-09-23T14:04:54;1.75;;;1.65;;
14738;SDS011;7461;52.440;13.540;2022-09-23T14:07:22;2.08;;;1.98;;
14738;SDS011;7461;52.440;13.540;2022-09-23T14:09:51;2.08;;;1.98;;
14738;SDS011;7461;52.440;13.540;2022-09-23T14:12:19;2.17;;;2.08;;
14738;SDS011;7461;52.440;13.540;2022-09-23T14:14:48;2.13;;;1.85;;
14738;SDS011;7461;52.440;13.540;2022-09-23T14:17:18;1.20;;;1.20;;
14738;SDS011;7461;52.440;13.540;2022-09-23T14:19:46;2.35;;;2.15;;
14738;SDS011;7461;52.440;13.540;2022-09-23T14:22:21;1.80;;;1.67;;
14738;SDS011;7461;52.440;13.540;2022-09-23T14:24:49;1.92;;;1.83;;
14738;SDS011;7461;52.440;13.540;2022-09-23T14:27:17;1.67;;;1.42;;
14738;SDS011;7461;52.440;13.540;2022-09-23T14:29:44;1.90;;;1.80;;
14738;SDS011;7461;52.440;13.540;2022-09-23T14:32:14;1.70;;;1.60;;
14738;SDS011;7461;52.440;13.540;2022-09-23T14:34:44;3.20;;;1.75;;
14738;SDS011;7461;52.440;13.540;2022-09-23T14:40:19;2.30;;;2.13;;
14738;SDS011;7461;52.440;13.540;2022-09-23T14:42:48;2.63;;;2.42;;
14738;SDS011;7461;52.440;13.540;2022-09-23T14:45:17;2.20;;;2.10;;
14738;SDS011;7461;52.440;13.540;2022-09-23T14:47:46;2.63;;;1.42;;
14738;SDS011;7461;52.440;13.540;2022-09-23T14:50:16;1.60;;;1.50;;
14738;SDS011;7461;52.440;13.540;2022-09-23T14:53:04;2.10;;;2.00;;
14738;SDS011;7461;52.440;13.540;2022-09-23T14:55:31;2.00;;;1.90;;
14738;SDS011;7461;52.440;13.540;2022-09-23T14:58:00;1.85;;;1.75;;
14738;SDS011;7461;52.440;13.540;2022-09-23T15:00:28;2.25;;;1.67;;
14738;SDS011;7461;52.440;13.540;2022-09-23T15:02:56;2.83;;;2.03;;
14738;SDS011;7461;52.440;13.540;2022-09-23T15:05:31;1.67;;;1.58;;
14738;SDS011;7461;52.440;13.540;2022-09-23T15:08:04;1.67;;;1.38;;
14738;SDS011;7461;52.440;13.540;2022-09-23T15:10:32;18.73;;;16.85;;
14738;SDS011;7461;52.440;13.540;2022-09-23T15:13:03;9.73;;;8.82;;
14738;SDS011;7461;52.440;13.540;2022-09-23T15:15:31;10.00;;;9.02;;
14738;SDS011;7461;52.440;13.540;2022-09-23T15:18:03;4.10;;;3.80;;
14738;SDS011;7461;52.440;13.540;2022-09-23T15:20:32;10.95;;;9.82;;
14738;SDS011;7461;52.440;13.540;2022-09-23T15:23:00;11.05;;;10.15;;
14738;SDS011;7461;52.440;13.540;2022-09-23T15:25:30;9.05;;;8.38;;